Preview of NWS' New Version of Forecast
This preview is not operational and should not be used for support decisions.

Terminal Aerodrome Forecast (TAF)

Issued by National Weather Service (NWS)

                            
000
FTUS42 KMFL 150223 AAA
TAFMIA
TAF AMD
KMIA 150223Z 1502/1606 10008KT P6SM SCT025
     FM150300 11005KT P6SM FEW035
     FM151500 10012KT P6SM SCT025
     FM160000 08010KT P6SM SCT035=